Time;durP1;ratioP1;P1;durP2;ratioP2;P2;SDS_P1;SDS_P2;PMS_P1;PMS_P2;Temp;Humidity;BMP_temperature;BMP_pressure;BME280_temperature;BME280_humidity;BME280_pressure;Samples;Min_cycle;Max_cycle;Signal;HPM_P1;HPM_P2
2023/09/06 00:02:10;;;;;;;5.90;1.73;;;;;;;15.98;82.35;101074.88;4918372;29;20108;-67
2023/09/06 00:05:13;;;;;;;6.97;1.92;;;;;;;16.08;81.70;101069.00;4918248;29;20042;-67
2023/09/06 00:08:17;;;;;;;4.15;1.70;;;;;;;15.99;81.68;101066.06;4918555;29;20418;-67
2023/09/06 00:11:20;;;;;;;5.82;1.60;;;;;;;15.82;82.32;101063.66;4918057;29;20518;-67
2023/09/06 00:14:23;;;;;;;3.88;1.20;;;;;;;15.88;82.24;101072.97;4918409;29;20107;-67
2023/09/06 00:17:26;;;;;;;5.18;1.35;;;;;;;15.74;82.74;101068.63;4918012;29;20108;-66
2023/09/06 00:20:30;;;;;;;6.68;1.92;;;;;;;15.74;82.74;101071.25;4918053;29;20131;-66
2023/09/06 00:23:33;;;;;;;3.85;1.88;;;;;;;15.75;82.48;101063.22;4917901;29;20039;-67
2023/09/06 00:26:37;;;;;;;5.18;1.70;;;;;;;15.77;82.48;101063.16;4917920;29;20051;-66
2023/09/06 00:29:41;;;;;;;4.93;1.40;;;;;;;15.74;82.50;101065.97;4917775;29;20091;-67
2023/09/06 00:32:45;;;;;;;7.72;1.60;;;;;;;15.74;82.17;101066.81;4917686;29;20131;-67
2023/09/06 00:35:48;;;;;;;5.45;1.65;;;;;;;15.72;81.95;101067.84;4895414;29;20538;-67
2023/09/06 00:38:52;;;;;;;5.80;1.33;;;;;;;15.70;81.99;101075.03;4917674;29;20055;-67
2023/09/06 00:41:55;;;;;;;5.95;1.73;;;;;;;15.67;82.14;101077.88;4917598;29;20088;-67
2023/09/06 00:45:00;;;;;;;5.22;2.25;;;;;;;15.57;82.47;101067.88;4917530;29;20051;-66
2023/09/06 00:48:05;;;;;;;4.97;1.73;;;;;;;15.58;82.67;101066.94;4912292;29;20042;-66
2023/09/06 00:51:09;;;;;;;6.55;1.95;;;;;;;15.53;82.79;101058.47;4917492;29;20051;-66
2023/09/06 00:54:14;;;;;;;5.03;2.10;;;;;;;15.52;82.61;101063.84;4914122;29;20055;-67
2023/09/06 00:57:17;;;;;;;3.83;1.58;;;;;;;15.49;82.48;101067.53;4905475;29;20047;-67
2023/09/06 01:00:24;;;;;;;4.50;1.65;;;;;;;15.40;82.92;101065.47;4917244;29;20059;-67
2023/09/06 01:03:28;;;;;;;4.50;1.60;;;;;;;15.37;82.68;101062.19;4917308;29;20459;-67
2023/09/06 01:06:34;;;;;;;6.10;1.70;;;;;;;15.32;82.81;101058.06;4905511;29;20702;-67
2023/09/06 01:09:37;;;;;;;5.30;1.73;;;;;;;15.28;82.98;101053.94;4917134;29;20135;-67
2023/09/06 01:12:40;;;;;;;4.70;1.83;;;;;;;15.28;82.58;101059.22;4905249;29;20043;-67
2023/09/06 01:15:45;;;;;;;4.57;2.05;;;;;;;15.22;82.75;101048.19;4894615;29;20183;-67
2023/09/06 01:18:48;;;;;;;4.80;1.52;;;;;;;15.18;82.68;101054.59;4894587;29;20487;-66
2023/09/06 01:22:18;;;;;;;3.72;1.90;;;;;;;15.15;82.83;101042.47;4905108;29;20480;-67
2023/09/06 01:25:21;;;;;;;8.93;1.60;;;;;;;15.20;82.64;101044.84;4916249;29;20074;-66
2023/09/06 01:28:27;;;;;;;4.82;1.65;;;;;;;15.18;82.50;101042.28;4916652;29;20448;-66
2023/09/06 01:31:30;;;;;;;8.57;1.95;;;;;;;15.15;82.57;101042.47;4916473;29;20435;-66
2023/09/06 01:34:34;;;;;;;5.32;1.70;;;;;;;15.09;82.87;101033.19;4916529;29;20104;-66
2023/09/06 01:37:37;;;;;;;4.75;1.90;;;;;;;15.10;82.70;101039.28;4916593;29;20039;-67
2023/09/06 01:40:42;;;;;;;3.47;1.67;;;;;;;15.07;82.38;101035.06;4916679;29;20243;-66
2023/09/06 01:43:45;;;;;;;5.47;1.50;;;;;;;15.04;82.27;101040.53;4916631;29;20136;-66
2023/09/06 01:46:49;;;;;;;7.15;1.75;;;;;;;15.01;82.39;101031.97;4916893;29;20470;-66
2023/09/06 01:50:01;;;;;;;18.98;3.47;;;;;;;14.94;82.76;101041.19;4904653;29;20079;-67
2023/09/06 01:53:04;;;;;;;8.35;1.70;;;;;;;14.84;83.18;101038.28;4904299;29;20149;-67
2023/09/06 01:56:07;;;;;;;8.50;2.28;;;;;;;14.78;83.53;101038.69;4904506;29;20055;-67
2023/09/06 01:59:10;;;;;;;4.45;1.65;;;;;;;14.75;83.73;101046.75;4904530;29;20099;-67
2023/09/06 02:02:14;;;;;;;8.50;1.70;;;;;;;14.79;83.50;101050.88;4915837;29;20135;-67
2023/09/06 02:05:17;;;;;;;4.75;1.60;;;;;;;14.86;83.07;101052.19;4901625;29;20042;-66
2023/09/06 02:08:21;;;;;;;5.45;1.80;;;;;;;14.81;83.03;101049.84;4916413;29;20050;-66
2023/09/06 02:11:25;;;;;;;3.33;1.58;;;;;;;14.74;83.33;101052.94;4915964;29;20047;-66
2023/09/06 02:14:28;;;;;;;3.30;1.50;;;;;;;14.68;83.63;101050.69;4904249;29;20112;-66
2023/09/06 02:17:32;;;;;;;8.20;2.03;;;;;;;14.68;83.39;101051.56;4904232;29;20066;-66
2023/09/06 02:20:39;;;;;;;4.47;1.85;;;;;;;14.68;83.55;101050.69;4904418;29;20438;-66
2023/09/06 02:23:42;;;;;;;7.57;2.45;;;;;;;14.55;84.21;101053.22;4916080;29;20176;-66
2023/09/06 02:26:45;;;;;;;3.78;1.40;;;;;;;14.61;83.71;101053.72;4915940;29;20047;-66
2023/09/06 02:29:51;;;;;;;4.45;1.50;;;;;;;14.53;83.90;101055.94;4915859;29;20046;-67
2023/09/06 02:32:55;;;;;;;5.28;1.70;;;;;;;14.58;83.60;101059.16;4915893;29;20047;-66
2023/09/06 02:35:58;;;;;;;6.38;1.75;;;;;;;14.60;83.29;101062.53;4904244;29;20055;-66
2023/09/06 02:39:02;;;;;;;7.03;1.23;;;;;;;14.59;83.29;101070.53;4904093;29;20051;-66
2023/09/06 02:42:05;;;;;;;3.55;1.67;;;;;;;14.53;83.45;101071.75;4915808;29;20048;-66
2023/09/06 02:45:09;;;;;;;4.53;1.50;;;;;;;14.49;83.37;101069.38;4904029;29;20479;-66
2023/09/06 02:48:16;;;;;;;4.22;1.67;;;;;;;14.57;82.86;101075.88;4915741;29;20087;-66
2023/09/06 02:51:19;;;;;;;3.92;1.65;;;;;;;14.53;82.76;101074.38;4915419;29;20043;-66
2023/09/06 02:54:22;;;;;;;7.30;1.80;;;;;;;14.46;83.30;101078.28;4915798;29;20095;-66
2023/09/06 02:57:26;;;;;;;;;;;;;;;14.47;83.01;101065.97;4904375;29;20513;-66
2023/09/06 03:00:30;;;;;;;3.88;1.60;;;;;;;14.45;83.04;101073.09;4915790;29;20298;-66
2023/09/06 03:03:33;;;;;;;6.13;1.50;;;;;;;14.39;83.01;101077.81;4915568;29;20047;-67
2023/09/06 03:06:37;;;;;;;7.57;2.00;;;;;;;14.32;83.26;101072.97;4903887;29;20463;-66
2023/09/06 03:09:44;;;;;;;6.18;2.03;;;;;;;14.32;83.23;101075.59;4903930;29;20074;-66
2023/09/06 03:12:54;;;;;;;5.15;1.88;;;;;;;14.25;83.72;101076.91;4906075;29;20127;-66
2023/09/06 03:15:59;;;;;;;4.38;1.42;;;;;;;14.24;83.59;101070.81;4907186;29;20226;-67
2023/09/06 03:19:02;;;;;;;9.20;1.58;;;;;;;14.22;83.41;101080.56;4907471;29;20433;-67
2023/09/06 03:22:12;;;;;;;3.55;1.63;;;;;;;14.18;83.64;101079.91;4907393;29;20059;-67
2023/09/06 03:25:15;;;;;;;5.32;1.73;;;;;;;14.07;84.16;101079.69;4907537;29;20054;-67
2023/09/06 03:28:21;;;;;;;4.85;1.55;;;;;;;14.09;83.67;101080.44;4904406;29;20124;-66
2023/09/06 03:31:26;;;;;;;3.95;1.40;;;;;;;14.07;83.98;101079.69;4907272;29;20047;-67
2023/09/06 03:34:29;;;;;;;3.85;1.50;;;;;;;14.06;83.86;101083.25;4907229;29;20481;-67
2023/09/06 03:37:32;;;;;;;2.83;1.50;;;;;;;14.08;83.86;101080.53;4918868;29;20054;-67
2023/09/06 03:40:36;;;;;;;4.32;1.77;;;;;;;14.01;83.81;101087.94;4896276;29;20047;-67
2023/09/06 03:43:39;;;;;;;7.15;1.88;;;;;;;14.03;83.83;101083.41;4918957;29;20107;-66
2023/09/06 03:46:42;;;;;;;5.35;1.75;;;;;;;13.94;84.03;101087.44;4918646;29;20055;-68
2023/09/06 03:49:46;;;;;;;3.78;1.80;;;;;;;14.01;83.89;101080.06;4906894;29;20047;-66
2023/09/06 03:52:51;;;;;;;7.72;1.70;;;;;;;13.96;84.00;101079.47;4918671;29;20131;-66
2023/09/06 03:55:57;;;;;;;6.70;1.90;;;;;;;13.91;83.79;101084.13;4918786;29;20452;-67
2023/09/06 03:59:02;;;;;;;6.10;1.67;;;;;;;13.90;83.85;101087.69;4906664;29;20051;-67
2023/09/06 04:02:13;;;;;;;5.22;1.63;;;;;;;13.96;83.36;101082.94;4906943;29;20142;-67
2023/09/06 04:05:16;;;;;;;4.00;1.58;;;;;;;13.92;83.60;101085.84;4906925;29;20051;-66
2023/09/06 04:08:20;;;;;;;7.85;2.20;;;;;;;13.92;82.98;101093.72;4906664;29;20083;-67
2023/09/06 04:11:27;;;;;;;6.40;1.77;;;;;;;13.86;83.28;101096.69;4906259;29;20047;-66
2023/09/06 04:14:34;;;;;;;7.05;1.98;;;;;;;13.79;83.59;101100.63;4906577;29;20518;-70
2023/09/06 04:17:38;;;;;;;10.35;3.00;;;;;;;13.75;83.84;101104.31;4906501;29;20083;-68
2023/09/06 04:20:48;;;;;;;11.35;1.95;;;;;;;13.77;83.70;101092.81;4906283;29;20043;-69
2023/09/06 04:23:55;;;;;;;3.85;1.55;;;;;;;13.70;84.00;101101.97;4917275;29;20099;-67
2023/09/06 04:26:59;;;;;;;5.63;2.00;;;;;;;13.65;84.14;101101.38;4918061;29;20047;-67
2023/09/06 04:30:04;;;;;;;6.05;2.20;;;;;;;13.65;84.25;101104.84;4906160;29;20099;-67
2023/09/06 04:33:15;;;;;;;3.53;1.80;;;;;;;13.61;84.08;101108.56;4895305;29;20104;-67
2023/09/06 04:36:41;;;;;;;7.63;2.20;;;;;;;13.24;86.95;101100.09;4917696;29;20143;-72
2023/09/06 04:39:46;;;;;;;4.40;2.30;;;;;;;12.89;88.10;101108.97;4905994;29;20055;-68
2023/09/06 04:42:49;;;;;;;3.85;2.30;;;;;;;12.78;89.13;101113.00;4904763;29;20055;-68
2023/09/06 04:45:54;;;;;;;6.93;2.17;;;;;;;12.82;88.89;101113.69;4903854;29;20163;-68
2023/09/06 04:48:58;;;;;;;6.13;2.00;;;;;;;12.76;89.17;101120.13;4903070;29;20064;-68
2023/09/06 04:52:02;;;;;;;6.28;1.85;;;;;;;12.69;89.99;101123.97;4915831;29;20102;-69
2023/09/06 04:55:08;;;;;;;3.58;1.75;;;;;;;12.75;89.89;101126.28;4915812;29;20086;-68
2023/09/06 04:58:12;;;;;;;7.03;2.30;;;;;;;12.72;89.64;101123.81;4903905;29;20050;-69
2023/09/06 05:01:15;;;;;;;6.88;1.80;;;;;;;12.67;89.60;101128.47;4915871;29;20485;-69
2023/09/06 05:04:19;;;;;;;6.25;1.95;;;;;;;12.68;89.87;101126.69;4903917;29;20083;-69
2023/09/06 05:07:23;;;;;;;6.07;2.10;;;;;;;12.91;88.56;101128.13;4903630;29;20514;-71
2023/09/06 05:10:27;;;;;;;4.18;1.70;;;;;;;12.92;88.50;101122.81;4903843;29;20067;-61
2023/09/06 05:13:30;;;;;;;7.22;1.90;;;;;;;12.68;89.76;101129.31;4903370;29;20375;-76
2023/09/06 05:16:33;;;;;;;5.30;2.50;;;;;;;12.70;89.37;101133.56;4903541;29;20139;-76
2023/09/06 05:19:36;;;;;;;4.75;2.47;;;;;;;12.87;88.86;101131.84;4903547;29;20478;-78
2023/09/06 05:22:39;;;;;;;3.45;2.15;;;;;;;12.65;89.64;101130.31;4903509;29;20050;-72
2023/09/06 05:25:44;;;;;;;6.38;2.22;;;;;;;12.71;89.51;101137.88;4903266;29;20529;-72
2023/09/06 05:28:52;;;;;;;4.15;1.98;;;;;;;12.80;88.89;101136.56;4903573;29;20062;-72
2023/09/06 05:31:56;;;;;;;6.18;1.80;;;;;;;12.86;88.99;101138.00;4903592;29;20046;-72
2023/09/06 05:34:59;;;;;;;;;;;;;;;12.99;88.10;101131.19;4915440;29;20598;-72
2023/09/06 05:38:05;;;;;;;4.97;2.50;;;;;;;12.94;88.47;101136.66;4903202;29;20063;-72
2023/09/06 05:41:10;;;;;;;9.25;2.00;;;;;;;12.92;88.53;101145.53;4903251;29;20118;-72
2023/09/06 05:44:16;;;;;;;6.22;1.73;;;;;;;12.74;89.88;101157.88;4903378;29;20099;-72
2023/09/06 05:47:19;;;;;;;4.78;1.77;;;;;;;12.79;90.29;101156.72;4914729;29;20463;-72
2023/09/06 05:50:23;;;;;;;5.22;2.25;;;;;;;13.02;89.35;101158.13;4903014;29;20047;-72
2023/09/06 05:53:26;;;;;;;;;;;;;;;13.15;89.09;101162.75;4915210;29;20070;-72
2023/09/06 05:56:30;;;;;;;6.25;1.83;;;;;;;13.12;89.39;101163.75;4902968;29;19922;-72
2023/09/06 05:59:33;;;;;;;5.00;1.90;;;;;;;13.11;89.76;101158.56;4914650;29;20521;-73
2023/09/06 06:02:37;;;;;;;5.47;2.10;;;;;;;12.96;90.87;101163.69;4914663;29;20504;-72
2023/09/06 06:05:41;;;;;;;7.43;2.25;;;;;;;12.90;91.99;101163.16;4902752;29;20593;-72
2023/09/06 06:08:44;;;;;;;6.95;2.13;;;;;;;13.18;90.60;101160.81;4902634;29;20122;-72
2023/09/06 06:11:48;;;;;;;5.93;2.33;;;;;;;13.19;90.68;101157.22;4914631;29;20558;-73
2023/09/06 06:14:56;;;;;;;6.38;1.90;;;;;;;13.38;90.09;101158.91;4914290;29;20127;-73
2023/09/06 06:18:00;;;;;;;3.83;1.95;;;;;;;13.37;90.25;101152.81;4914819;29;20108;-73
2023/09/06 06:21:03;;;;;;;;;;;;;;;13.43;90.10;101167.38;4915517;29;20066;-73
2023/09/06 06:24:20;;;;;;;8.27;2.30;;;;;;;13.53;89.94;101158.09;4914753;29;19982;-74
2023/09/06 06:27:24;;;;;;;4.07;1.75;;;;;;;13.49;90.77;101167.06;4914976;29;20157;-74
2023/09/06 06:30:30;;;;;;;4.82;1.63;;;;;;;13.54;91.66;101169.44;4914824;29;20062;-72
2023/09/06 06:33:33;;;;;;;;;;;;;;;13.72;90.94;101160.56;4914795;29;20148;-67
2023/09/06 06:36:35;;;;;;;4.05;1.67;;;;;;;13.99;89.67;101163.41;4914481;29;20014;-66
2023/09/06 06:39:39;;;;;;;7.80;2.40;;;;;;;14.13;89.29;101170.50;4914222;29;20065;-67
2023/09/06 06:42:45;;;;;;;5.18;1.88;;;;;;;14.19;89.64;101165.75;4914095;29;20477;-66
2023/09/06 06:45:55;;;;;;;6.15;1.88;;;;;;;14.27;89.86;101170.59;4914540;29;20462;-66
2023/09/06 06:48:59;;;;;;;5.93;1.77;;;;;;;14.36;89.88;101172.69;4918127;29;20051;-64
2023/09/06 06:52:02;;;;;;;2.47;1.50;;;;;;;14.48;90.06;101162.38;4917887;29;20059;-68
2023/09/06 06:55:05;;;;;;;3.05;1.65;;;;;;;14.58;89.68;101164.44;4918025;29;20047;-69
2023/09/06 06:58:09;;;;;;;7.20;1.95;;;;;;;14.62;89.83;101173.84;4917781;29;20119;-68
2023/09/06 07:01:12;;;;;;;3.55;1.70;;;;;;;14.64;90.16;101169.34;4914131;29;20133;-67
2023/09/06 07:04:16;;;;;;;3.95;2.00;;;;;;;14.73;89.52;101167.09;4917717;29;20139;-67
2023/09/06 07:07:19;;;;;;;5.40;1.75;;;;;;;14.81;89.50;101165.69;4906145;29;20090;-67
2023/09/06 07:10:23;;;;;;;5.82;1.85;;;;;;;14.95;89.21;101171.91;4917670;29;20438;-68
2023/09/06 07:13:26;;;;;;;3.20;1.42;;;;;;;15.01;90.15;101167.13;4917424;29;20131;-68
2023/09/06 07:16:31;;;;;;;4.68;1.90;;;;;;;15.11;90.53;101157.72;4917416;29;20123;-68
2023/09/06 07:19:34;;;;;;;2.58;1.52;;;;;;;15.22;90.56;101162.34;4917359;29;20127;-68
2023/09/06 07:22:37;;;;;;;3.22;1.58;;;;;;;15.37;90.21;101157.88;4917550;29;20502;-72
2023/09/06 07:25:46;;;;;;;2.47;1.40;;;;;;;15.44;91.09;101163.63;4917448;29;20059;-68
2023/09/06 07:28:50;;;;;;;8.60;2.45;;;;;;;15.53;90.76;101168.31;4917427;29;20103;-68
2023/09/06 07:31:53;;;;;;;6.03;2.08;;;;;;;15.57;91.38;101170.69;4917256;29;20086;-68
2023/09/06 07:34:57;;;;;;;5.85;1.80;;;;;;;15.72;91.97;101170.69;4917356;29;20051;-74
2023/09/06 07:38:00;;;;;;;4.13;1.98;;;;;;;15.80;93.70;101169.25;4917680;29;20561;-63
2023/09/06 07:41:08;;;;;;;5.00;1.45;;;;;;;15.94;93.98;101175.44;4917619;29;20082;-63
2023/09/06 07:44:11;;;;;;;4.47;1.50;;;;;;;16.09;93.95;101173.59;4917077;29;20051;-63
2023/09/06 07:47:15;;;;;;;6.25;2.25;;;;;;;16.24;93.64;101172.56;4916938;29;20051;-62
2023/09/06 07:50:18;;;;;;;6.22;2.47;;;;;;;16.38;93.85;101177.81;4917158;29;20095;-62
2023/09/06 07:53:23;;;;;;;5.72;2.10;;;;;;;16.59;93.24;101183.47;4916740;29;20054;-63
2023/09/06 07:56:26;;;;;;;6.65;2.38;;;;;;;16.77;91.94;101186.66;4916920;29;20415;-63
2023/09/06 07:59:30;;;;;;;6.38;2.45;;;;;;;16.96;92.22;101178.34;4903648;29;20514;-63
2023/09/06 08:02:33;;;;;;;5.30;3.00;;;;;;;17.15;91.46;101176.13;4916868;29;20407;-68
2023/09/06 08:05:37;;;;;;;4.20;2.90;;;;;;;17.30;89.74;101174.22;4916473;29;20074;-64
2023/09/06 08:08:40;;;;;;;6.13;2.63;;;;;;;17.45;88.90;101177.56;4916751;29;20135;-64
2023/09/06 08:11:43;;;;;;;4.22;2.40;;;;;;;17.61;86.54;101174.66;4916392;29;20127;-64
2023/09/06 08:14:46;;;;;;;6.68;3.10;;;;;;;17.70;86.94;101168.72;4916478;29;20062;-64
2023/09/06 08:17:50;;;;;;;5.75;2.78;;;;;;;17.86;85.79;101174.63;4916577;29;20107;-64
2023/09/06 08:20:53;;;;;;;9.88;3.15;;;;;;;17.98;85.67;101172.91;4916449;29;20123;-64
2023/09/06 08:23:56;;;;;;;6.90;2.50;;;;;;;18.04;83.84;101172.44;4916460;29;20091;-63
2023/09/06 08:27:00;;;;;;;5.28;2.55;;;;;;;18.18;83.80;101179.34;4916351;29;20095;-63
2023/09/06 08:30:06;;;;;;;8.20;2.95;;;;;;;18.29;83.15;101171.47;4916885;29;20134;-63
2023/09/06 08:33:09;;;;;;;6.65;2.47;;;;;;;18.43;81.98;101170.44;4916366;29;20130;-63
2023/09/06 08:36:12;;;;;;;6.57;2.70;;;;;;;18.47;82.97;101173.69;4916403;29;20403;-63
2023/09/06 08:39:15;;;;;;;10.52;2.88;;;;;;;18.58;82.58;101171.09;4916237;29;20051;-64
2023/09/06 08:42:20;;;;;;;6.78;2.83;;;;;;;18.68;81.51;101166.78;4916030;29;20148;-63
2023/09/06 08:45:25;;;;;;;8.45;2.75;;;;;;;18.83;80.94;101163.97;4916114;29;20123;-62
2023/09/06 08:48:28;;;;;;;7.38;2.78;;;;;;;18.91;80.27;101164.22;4915873;29;20107;-62
2023/09/06 08:51:35;;;;;;;6.30;3.03;;;;;;;19.08;82.41;101166.41;4915925;29;20145;-62
2023/09/06 08:54:39;;;;;;;5.75;2.67;;;;;;;19.15;79.92;101167.63;4915834;29;20047;-61
2023/09/06 08:57:44;;;;;;;8.13;3.10;;;;;;;19.35;77.74;101167.84;4916045;29;20099;-64
2023/09/06 09:00:47;;;;;;;10.27;2.78;;;;;;;19.34;77.74;101159.06;4915752;29;20043;-64
2023/09/06 09:03:51;;;;;;;6.53;3.20;;;;;;;19.47;80.88;101154.47;4915966;29;20047;-64
2023/09/06 09:06:54;;;;;;;5.45;2.85;;;;;;;19.68;80.20;101162.53;4915522;29;20462;-65
2023/09/06 09:10:07;;;;;;;7.97;3.05;;;;;;;19.86;77.75;101156.72;4915390;29;20424;-64
2023/09/06 09:13:12;;;;;;;;;;;;;;;20.16;78.99;101159.50;4915747;29;20147;-63
2023/09/06 09:16:16;;;;;;;11.68;2.45;;;;;;;20.37;77.88;101154.22;4915313;29;19926;-64
2023/09/06 09:19:21;;;;;;;7.82;2.72;;;;;;;20.48;77.80;101160.44;4915630;29;20051;-64
2023/09/06 09:22:30;;;;;;;4.05;2.58;;;;;;;20.62;73.92;101152.19;4915436;29;20107;-64
2023/09/06 09:25:33;;;;;;;6.13;2.53;;;;;;;20.76;72.38;101148.34;4915684;29;20139;-64
2023/09/06 09:28:37;;;;;;;5.95;3.35;;;;;;;20.88;74.88;101140.16;4915228;29;20107;-65
2023/09/06 09:31:40;;;;;;;7.38;2.92;;;;;;;20.94;72.91;101138.81;4915317;29;20054;-63
2023/09/06 09:34:44;;;;;;;3.55;2.53;;;;;;;20.98;72.51;101134.06;4915268;29;20477;-64
2023/09/06 09:37:51;;;;;;;4.95;2.85;;;;;;;21.03;73.39;101132.69;4915136;29;20112;-63
2023/09/06 09:41:08;;;;;;;4.95;2.80;;;;;;;21.08;71.76;101133.13;4915148;29;20047;-64
2023/09/06 09:44:15;;;;;;;9.50;3.25;;;;;;;21.19;73.28;101129.53;4914956;29;20051;-64
2023/09/06 09:47:18;;;;;;;4.18;2.90;;;;;;;21.23;73.00;101130.13;4912199;29;20042;-65
2023/09/06 09:50:22;;;;;;;5.82;2.95;;;;;;;21.34;71.10;101120.19;4915261;29;20050;-64
2023/09/06 09:53:28;;;;;;;4.63;2.53;;;;;;;21.44;72.16;101122.06;4915050;29;20047;-63
2023/09/06 09:56:38;;;;;;;5.25;2.47;;;;;;;21.54;69.93;101121.13;4914975;29;20066;-63
2023/09/06 09:59:43;;;;;;;7.65;2.88;;;;;;;21.70;68.48;101112.63;4914922;29;20063;-72
2023/09/06 10:02:47;;;;;;;5.75;2.70;;;;;;;21.86;68.37;101117.41;4915013;29;20189;-72
2023/09/06 10:05:51;;;;;;;10.43;3.30;;;;;;;21.88;67.42;101110.09;4914941;29;20087;-72
2023/09/06 10:08:57;;;;;;;8.18;2.67;;;;;;;22.03;68.71;101110.53;4915377;29;20513;-72
2023/09/06 10:12:02;;;;;;;8.60;2.90;;;;;;;22.25;69.36;101104.13;4914675;29;20111;-73
2023/09/06 10:15:05;;;;;;;4.88;2.55;;;;;;;22.44;66.50;101101.41;4914548;29;20071;-73
2023/09/06 10:18:09;;;;;;;4.85;2.80;;;;;;;;;;4914800;29;20517;-73
2023/09/06 10:21:20;;;;;;;7.10;2.85;;;;;;;22.62;63.79;101098.88;4914198;29;20226;-73
2023/09/06 10:24:25;;;;;;;3.95;2.33;;;;;;;22.62;63.77;101088.19;4914977;29;20078;-73
2023/09/06 10:27:32;;;;;;;5.45;2.58;;;;;;;22.66;61.92;101091.41;4914657;29;20051;-72
2023/09/06 10:30:44;;;;;;;5.55;2.75;;;;;;;22.68;60.43;101095.59;4915103;29;20167;-73
2023/09/06 10:33:48;;;;;;;4.75;3.05;;;;;;;22.71;60.92;101087.31;4914589;29;20127;-72
2023/09/06 10:37:21;;;;;;;4.95;2.80;;;;;;;22.80;58.97;101084.75;4914999;29;20059;-72
2023/09/06 10:40:24;;;;;;;6.32;3.00;;;;;;;23.01;60.70;101074.75;4914424;29;20092;-72
2023/09/06 10:44:09;;;;;;;4.60;2.40;;;;;;;23.02;60.64;101083.59;4914911;29;20054;-73
2023/09/06 10:47:24;;;;;;;7.53;2.90;;;;;;;23.04;59.29;101082.47;4914549;29;20104;-73
2023/09/06 10:50:29;;;;;;;5.00;2.70;;;;;;;23.11;59.25;101078.22;4914697;29;20103;-72
2023/09/06 10:53:37;;;;;;;8.40;3.25;;;;;;;23.11;59.26;101077.38;4914329;29;20051;-64
2023/09/06 10:56:50;;;;;;;3.58;2.55;;;;;;;23.26;58.32;101070.56;4914176;29;20038;-72
2023/09/06 10:59:58;;;;;;;7.07;3.45;;;;;;;23.44;58.93;101068.72;4914303;29;20063;-72
2023/09/06 11:03:04;;;;;;;4.22;2.80;;;;;;;23.29;57.67;101072.88;4914257;29;20630;-76
2023/09/06 11:06:09;;;;;;;7.68;3.05;;;;;;;23.56;56.98;101058.69;4914174;29;20047;-72
2023/09/06 11:09:12;;;;;;;4.28;2.80;;;;;;;23.54;57.04;101055.31;4914526;29;20050;-71
2023/09/06 11:12:17;;;;;;;4.78;2.92;;;;;;;23.59;56.14;101045.03;4913936;29;20055;-72
2023/09/06 11:15:20;;;;;;;4.50;2.90;;;;;;;23.86;55.43;101048.63;4914019;29;20066;-71
2023/09/06 11:18:23;;;;;;;5.25;3.03;;;;;;;23.95;53.99;101045.03;4914023;29;20422;-72
2023/09/06 11:21:26;;;;;;;4.70;3.15;;;;;;;24.05;53.73;101045.78;4914168;29;20099;-70
2023/09/06 11:24:41;;;;;;;4.45;2.72;;;;;;;24.01;55.71;101043.59;4914353;29;20078;-70
2023/09/06 11:27:59;;;;;;;4.38;2.67;;;;;;;24.29;53.63;101039.78;4908713;29;20191;-70
2023/09/06 11:31:04;;;;;;;3.95;2.50;;;;;;;24.26;53.36;101037.44;4902732;29;20054;-70
2023/09/06 11:34:12;;;;;;;4.45;2.85;;;;;;;24.26;53.30;101032.09;4916825;29;20144;-70
2023/09/06 11:37:16;;;;;;;6.22;2.70;;;;;;;24.54;50.05;101027.44;4918436;29;20138;-70
2023/09/06 11:40:21;;;;;;;6.90;2.97;;;;;;;24.68;50.14;101033.19;4905978;29;20138;-71
2023/09/06 11:43:26;;;;;;;5.93;2.67;;;;;;;24.90;49.56;101021.09;4917404;29;20462;-69
2023/09/06 11:46:31;;;;;;;5.15;2.80;;;;;;;24.83;46.25;101019.06;4917328;29;20601;-71
2023/09/06 11:49:34;;;;;;;4.25;2.63;;;;;;;24.79;47.83;101020.38;4917520;29;20058;-71
2023/09/06 11:52:39;;;;;;;6.13;2.95;;;;;;;25.03;46.89;101010.75;4917259;29;20071;-72
2023/09/06 11:55:45;;;;;;;4.55;2.53;;;;;;;25.15;47.96;101001.47;4917468;29;20099;-73
2023/09/06 11:58:50;;;;;;;4.03;2.88;;;;;;;25.15;47.78;101001.47;4917312;29;20051;-73
2023/09/06 12:02:00;;;;;;;7.00;2.78;;;;;;;25.16;46.79;101002.31;4905664;29;20415;-72
2023/09/06 12:05:11;;;;;;;4.20;2.78;;;;;;;25.20;46.30;100995.63;4906117;29;20462;-73
2023/09/06 12:08:23;;;;;;;6.70;2.55;;;;;;;25.29;45.83;100987.44;4917494;29;20516;-73
2023/09/06 12:11:27;;;;;;;5.28;2.97;;;;;;;25.33;45.92;100977.22;4917340;29;20123;-73
2023/09/06 12:14:32;;;;;;;6.90;2.95;;;;;;;25.33;47.19;100987.94;4918034;29;20099;-73
2023/09/06 12:17:35;;;;;;;5.65;3.08;;;;;;;25.54;45.31;100976.75;4898349;29;20127;-73
2023/09/06 12:20:43;;;;;;;4.68;2.47;;;;;;;25.93;43.67;100990.31;4897744;29;20051;-72
2023/09/06 12:23:47;;;;;;;4.82;2.78;;;;;;;26.14;43.94;100983.63;4898440;29;20537;-72
2023/09/06 12:26:50;;;;;;;10.90;3.33;;;;;;;26.34;42.28;100986.75;4898471;29;20075;-72
2023/09/06 12:29:53;;;;;;;5.40;2.65;;;;;;;26.71;42.57;100972.72;4898241;29;20360;-72
2023/09/06 12:32:57;;;;;;;4.07;2.75;;;;;;;27.04;42.01;100976.06;4898293;29;20052;-72
2023/09/06 12:36:03;;;;;;;5.45;2.72;;;;;;;27.22;41.61;100972.28;4898219;29;20140;-73
2023/09/06 12:39:06;;;;;;;4.10;2.40;;;;;;;27.47;38.87;100973.81;4898019;29;20063;-73
2023/09/06 12:42:10;;;;;;;4.43;2.65;;;;;;;27.84;39.38;100977.53;4897952;29;20419;-72
2023/09/06 12:45:28;;;;;;;4.63;2.50;;;;;;;28.12;37.02;100961.63;4897167;29;20055;-73
2023/09/06 12:48:32;;;;;;;8.95;2.60;;;;;;;28.68;37.29;100958.47;4898030;29;20063;-73
2023/09/06 12:51:37;;;;;;;4.75;2.67;;;;;;;29.18;37.31;100951.41;4898121;29;20055;-74
2023/09/06 12:54:40;;;;;;;4.72;2.42;;;;;;;29.52;35.17;100947.19;4897804;29;20183;-73
2023/09/06 12:57:44;;;;;;;3.70;2.70;;;;;;;29.72;34.78;100947.38;4897432;29;20069;-74
2023/09/06 13:00:47;;;;;;;4.18;2.65;;;;;;;29.96;34.56;100948.75;4897534;29;20083;-73
2023/09/06 13:03:50;;;;;;;5.57;2.67;;;;;;;30.03;34.96;100938.88;4897379;29;20047;-62
2023/09/06 13:06:54;;;;;;;3.60;2.50;;;;;;;29.79;32.79;100938.28;4897701;29;20421;-68
2023/09/06 13:09:57;;;;;;;5.18;3.25;;;;;;;30.45;33.56;100929.78;4897321;29;20571;-68
2023/09/06 13:13:00;;;;;;;3.80;2.42;;;;;;;30.90;31.93;100937.44;4897104;29;20052;-68
2023/09/06 13:16:06;;;;;;;4.85;2.45;;;;;;;31.49;29.89;100931.28;4904537;29;20115;-69
2023/09/06 13:19:11;;;;;;;4.30;2.60;;;;;;;32.37;30.63;100930.97;4915885;29;20411;-70
2023/09/06 13:22:14;;;;;;;3.70;2.78;;;;;;;32.68;29.60;100915.88;4916060;29;20047;-69
2023/09/06 13:25:18;;;;;;;3.97;2.95;;;;;;;33.40;28.76;100919.16;4915796;29;20043;-70
2023/09/06 13:28:21;;;;;;;4.18;2.67;;;;;;;33.96;28.69;100921.78;4916131;29;20100;-71
2023/09/06 13:31:25;;;;;;;4.00;3.00;;;;;;;35.08;25.90;100915.19;4916074;29;20055;-72
2023/09/06 13:34:28;;;;;;;3.67;3.03;;;;;;;37.52;23.53;100902.28;4916058;29;20051;-72
2023/09/06 13:37:32;;;;;;;3.85;2.53;;;;;;;41.32;19.52;100897.44;4915761;29;20126;-72
2023/09/06 13:40:35;;;;;;;5.50;3.28;;;;;;;42.21;18.49;100897.72;4915848;29;20078;-65
2023/09/06 13:43:39;;;;;;;3.55;2.92;;;;;;;43.71;16.58;100889.97;4915859;29;20043;-64
2023/09/06 13:46:42;;;;;;;5.00;2.75;;;;;;;45.90;14.82;100894.81;4915470;29;20111;-64
2023/09/06 13:49:46;;;;;;;5.40;3.17;;;;;;;46.63;14.48;100883.00;4915618;29;20103;-65
2023/09/06 13:52:49;;;;;;;4.70;2.67;;;;;;;47.38;14.00;100886.88;4915607;29;20143;-65
2023/09/06 13:55:53;;;;;;;3.75;2.63;;;;;;;45.92;13.28;100875.97;4914742;29;20095;-63
2023/09/06 13:58:56;;;;;;;3.30;2.45;;;;;;;47.19;13.76;100879.59;4915308;29;20103;-65
2023/09/06 14:02:00;;;;;;;3.85;2.42;;;;;;;47.71;13.40;100879.00;4915219;29;20187;-63
2023/09/06 14:05:03;;;;;;;5.10;2.42;;;;;;;48.55;12.83;100877.84;4915104;29;20043;-63
2023/09/06 14:08:07;;;;;;;3.00;2.28;;;;;;;47.80;13.11;100879.84;4915420;29;20095;-63
2023/09/06 14:11:11;;;;;;;6.05;2.70;;;;;;;47.62;13.06;100876.22;4915306;29;20062;-63
2023/09/06 14:14:17;;;;;;;3.70;2.58;;;;;;;48.76;12.86;100871.59;4915579;29;20099;-64
2023/09/06 14:17:21;;;;;;;3.13;2.65;;;;;;;48.38;12.69;100869.53;4914947;29;20067;-63
2023/09/06 14:20:26;;;;;;;2.85;2.35;;;;;;;48.69;12.13;100858.22;4915069;29;20106;-75
2023/09/06 14:23:29;;;;;;;4.72;2.53;;;;;;;48.23;12.87;100856.16;4913224;29;20143;-74